createdAt,value
2023-04-12T00:01:27.675Z,1.70
2023-04-12T00:04:12.091Z,1.80
2023-04-12T00:06:46.814Z,1.77
2023-04-12T00:09:15.864Z,1.80
2023-04-12T00:11:50.819Z,1.83
2023-04-12T00:14:21.102Z,1.47
2023-04-12T00:16:56.156Z,1.40
2023-04-12T00:19:27.809Z,1.57
2023-04-12T00:22:02.863Z,1.70
2023-04-12T00:24:37.842Z,1.50
2023-04-12T00:27:06.400Z,1.50
2023-04-12T00:29:42.847Z,1.60
2023-04-12T00:32:13.230Z,1.40
2023-04-12T00:34:47.843Z,1.50
2023-04-12T00:37:22.982Z,1.20
2023-04-12T00:39:51.188Z,1.40
2023-04-12T00:42:25.881Z,1.47
2023-04-12T00:45:02.874Z,1.67
2023-04-12T00:47:32.452Z,1.53
2023-04-12T00:50:07.863Z,1.50
2023-04-12T00:52:43.022Z,1.40
2023-04-12T00:55:12.054Z,1.50
2023-04-12T00:57:47.837Z,1.53
2023-04-12T01:00:18.319Z,1.50
2023-04-12T01:03:01.115Z,1.70
2023-04-12T01:05:45.110Z,1.30
2023-04-12T01:08:26.960Z,1.80
2023-04-12T01:11:08.937Z,1.40
2023-04-12T01:13:43.297Z,1.40
2023-04-12T01:16:27.096Z,1.30
2023-04-12T01:18:59.900Z,1.30
2023-04-12T01:21:45.110Z,1.20
2023-04-12T01:24:29.094Z,1.33
2023-04-12T01:27:06.968Z,1.30
2023-04-12T01:29:37.319Z,1.10
2023-04-12T01:32:13.113Z,1.10
2023-04-12T01:34:42.834Z,1.20
2023-04-12T01:37:18.080Z,1.30
2023-04-12T01:39:46.765Z,1.20
2023-04-12T01:42:26.916Z,1.27
2023-04-12T01:44:57.655Z,1.13
2023-04-12T01:47:26.095Z,1.20
2023-04-12T01:50:10.898Z,1.20
2023-04-12T01:52:45.452Z,1.20
2023-04-12T01:55:22.069Z,1.20
2023-04-12T01:57:54.740Z,1.20
2023-04-12T02:00:31.912Z,1.03
2023-04-12T02:03:07.538Z,1.20
2023-04-12T02:05:49.324Z,1.20
2023-04-12T02:08:18.762Z,1.23
2023-04-12T02:10:56.362Z,1.10
2023-04-12T02:13:34.044Z,1.10
2023-04-12T02:16:04.468Z,1.10
2023-04-12T02:18:40.039Z,1.00
2023-04-12T02:21:11.382Z,1.30
2023-04-12T02:23:45.929Z,1.40
2023-04-12T02:26:21.012Z,1.00
2023-04-12T02:28:49.323Z,1.13
2023-04-12T02:31:28.118Z,1.10
2023-04-12T02:33:56.530Z,1.10
2023-04-12T02:36:31.127Z,1.17
2023-04-12T02:39:05.957Z,1.00
2023-04-12T02:41:34.610Z,1.20
2023-04-12T02:44:10.146Z,1.23
2023-04-12T02:46:40.060Z,1.20
2023-04-12T02:49:08.332Z,1.10
2023-04-12T02:51:45.109Z,1.00
2023-04-12T02:54:13.333Z,1.10
2023-04-12T02:56:49.988Z,1.07
2023-04-12T02:59:24.965Z,1.00
2023-04-12T03:01:55.369Z,1.13
2023-04-12T03:04:37.164Z,1.00
2023-04-12T03:07:05.773Z,1.10
2023-04-12T03:09:40.978Z,1.40
2023-04-12T03:12:15.980Z,1.20
2023-04-12T03:14:44.456Z,1.23
2023-04-12T03:17:21.118Z,1.07
2023-04-12T03:19:50.692Z,1.20
2023-04-12T03:22:18.817Z,1.10
2023-04-12T03:24:54.168Z,1.10
2023-04-12T03:27:22.720Z,1.10
2023-04-12T03:29:59.011Z,1.10
2023-04-12T03:32:28.746Z,1.40
2023-04-12T03:35:04.018Z,1.20
2023-04-12T03:37:39.009Z,1.30
2023-04-12T03:40:08.977Z,1.10
2023-04-12T03:42:44.103Z,1.10
2023-04-12T03:45:13.261Z,0.93
2023-04-12T03:47:49.027Z,1.23
2023-04-12T03:50:24.179Z,1.13
2023-04-12T03:52:52.501Z,1.50
2023-04-12T03:55:27.076Z,1.20
2023-04-12T03:57:57.000Z,1.23
2023-04-12T04:00:32.015Z,1.30
2023-04-12T04:03:12.063Z,1.30
2023-04-12T04:05:47.098Z,1.10
2023-04-12T04:08:22.207Z,1.10
2023-04-12T04:10:50.646Z,1.10
2023-04-12T04:13:25.027Z,1.07
2023-04-12T04:16:04.125Z,1.13
2023-04-12T04:18:35.977Z,1.03
2023-04-12T04:21:11.067Z,1.40
2023-04-12T04:23:39.739Z,1.00
2023-04-12T04:26:17.181Z,1.10
2023-04-12T04:28:46.640Z,1.00
2023-04-12T04:31:24.279Z,1.10
2023-04-12T04:34:01.038Z,1.03
2023-04-12T04:36:29.990Z,1.47
2023-04-12T04:39:05.061Z,1.27
2023-04-12T04:41:34.624Z,1.03
2023-04-12T04:44:11.073Z,1.33
2023-04-12T04:46:40.035Z,0.90
2023-04-12T04:49:17.124Z,1.07
2023-04-12T04:51:45.941Z,1.10
2023-04-12T04:54:14.474Z,1.10
2023-04-12T04:56:49.095Z,1.00
2023-04-12T04:59:17.855Z,1.10
2023-04-12T05:01:53.125Z,1.17
2023-04-12T05:04:29.392Z,0.80
2023-04-12T05:07:11.114Z,1.00
2023-04-12T05:09:46.244Z,0.83
2023-04-12T05:12:14.589Z,1.00
2023-04-12T05:14:51.848Z,1.00
2023-04-12T05:17:20.506Z,1.00
2023-04-12T05:19:57.114Z,0.90
2023-04-12T05:22:32.114Z,0.90
2023-04-12T05:25:01.024Z,1.10
2023-04-12T05:27:37.105Z,1.00
2023-04-12T05:30:06.071Z,0.90
2023-04-12T05:32:41.113Z,1.00
2023-04-12T05:35:11.213Z,0.97
2023-04-12T05:37:46.103Z,0.87
2023-04-12T05:40:14.960Z,1.00
2023-04-12T05:42:50.183Z,0.90
2023-04-12T05:45:18.350Z,0.90
2023-04-12T05:47:46.712Z,0.93
2023-04-12T05:50:23.129Z,0.80
2023-04-12T05:52:53.511Z,0.90
2023-04-12T05:55:29.152Z,1.00
2023-04-12T05:57:57.649Z,0.80
2023-04-12T06:00:26.387Z,0.90
2023-04-12T06:03:02.179Z,1.10
2023-04-12T06:05:38.966Z,0.80
2023-04-12T06:08:14.188Z,2.10
2023-04-12T06:10:42.558Z,1.30
2023-04-12T06:13:17.310Z,2.70
2023-04-12T06:15:45.569Z,2.47
2023-04-12T06:18:14.372Z,1.80
2023-04-12T06:20:50.154Z,2.03
2023-04-12T06:23:19.295Z,2.90
2023-04-12T06:25:57.193Z,1.23
2023-04-12T06:28:25.719Z,1.63
2023-04-12T06:31:00.385Z,1.37
2023-04-12T06:33:28.686Z,1.50
2023-04-12T06:35:58.496Z,1.27
2023-04-12T06:38:33.188Z,1.47
2023-04-12T06:41:01.810Z,1.47
2023-04-12T06:43:37.458Z,1.60
2023-04-12T06:46:06.481Z,1.40
2023-04-12T06:48:34.682Z,1.40
2023-04-12T06:51:11.194Z,1.30
2023-04-12T06:53:39.395Z,1.60
2023-04-12T06:56:17.908Z,1.63
2023-04-12T06:58:47.195Z,1.43
2023-04-12T07:01:22.529Z,1.70
2023-04-12T07:04:10.349Z,1.50
2023-04-12T07:06:47.398Z,1.90
2023-04-12T07:09:16.056Z,1.90
2023-04-12T07:11:50.360Z,1.80
2023-04-12T07:14:25.208Z,2.20
2023-04-12T07:16:53.495Z,1.80
2023-04-12T07:19:29.403Z,1.90
2023-04-12T07:21:59.042Z,1.70
2023-04-12T07:24:34.412Z,1.83
2023-04-12T07:27:02.566Z,1.90
2023-04-12T07:29:31.545Z,1.80
2023-04-12T07:32:08.562Z,1.70
2023-04-12T07:34:39.470Z,1.83
2023-04-12T07:37:16.294Z,2.00
2023-04-12T07:39:45.088Z,1.60
2023-04-12T07:42:20.226Z,1.50
2023-04-12T07:44:55.365Z,1.50
2023-04-12T07:47:23.628Z,1.60
2023-04-12T07:49:58.222Z,1.50
2023-04-12T07:52:28.030Z,1.73
2023-04-12T07:55:02.434Z,1.70
2023-04-12T07:57:37.285Z,2.03
2023-04-12T08:00:07.093Z,1.80
2023-04-12T08:02:42.339Z,1.80
2023-04-12T08:05:17.528Z,2.10
2023-04-12T08:07:53.235Z,2.00
2023-04-12T08:10:28.255Z,1.80
2023-04-12T08:12:56.737Z,1.93
2023-04-12T08:15:31.290Z,2.07
2023-04-12T08:17:59.525Z,2.03
2023-04-12T08:20:28.061Z,2.17
2023-04-12T08:23:05.385Z,2.00
2023-04-12T08:25:34.826Z,2.37
2023-04-12T08:28:10.325Z,2.00
2023-04-12T08:30:38.514Z,2.30
2023-04-12T08:33:14.284Z,2.50
2023-04-12T08:35:42.774Z,2.87
2023-04-12T08:38:20.865Z,2.53
2023-04-12T08:40:54.280Z,2.30
2023-04-12T08:43:30.380Z,2.00
2023-04-12T08:46:07.378Z,2.57
2023-04-12T08:48:38.075Z,2.60
2023-04-12T08:51:14.317Z,2.00
2023-04-12T08:53:47.557Z,3.20
2023-04-12T08:56:24.471Z,2.77
2023-04-12T08:59:00.278Z,2.77
2023-04-12T09:01:29.055Z,2.70
2023-04-12T09:04:03.756Z,3.00
2023-04-12T09:06:38.800Z,2.70
2023-04-12T09:09:15.393Z,3.10
2023-04-12T09:11:50.291Z,2.57
2023-04-12T09:14:26.636Z,3.33
2023-04-12T09:17:01.372Z,3.50
2023-04-12T09:19:33.801Z,3.30
2023-04-12T09:22:08.381Z,3.20
2023-04-12T09:24:48.723Z,3.30
2023-04-12T09:27:24.425Z,2.97
2023-04-12T09:29:53.097Z,3.23
2023-04-12T09:32:34.346Z,3.17
2023-04-12T09:35:02.934Z,2.90
2023-04-12T09:37:38.468Z,3.00
2023-04-12T09:40:17.356Z,3.50
2023-04-12T09:42:53.553Z,2.80
2023-04-12T09:45:30.382Z,3.30
2023-04-12T09:47:59.236Z,3.53
2023-04-12T09:50:35.548Z,3.20
2023-04-12T09:53:05.156Z,3.07
2023-04-12T09:55:41.717Z,3.07
2023-04-12T09:58:11.164Z,3.13
2023-04-12T10:00:46.681Z,3.37
2023-04-12T10:03:15.210Z,3.03
2023-04-12T10:05:57.535Z,2.77
2023-04-12T10:08:32.415Z,3.30
2023-04-12T10:11:02.983Z,2.93
2023-04-12T10:13:40.362Z,2.90
2023-04-12T10:16:11.232Z,3.03
2023-04-12T10:18:46.349Z,3.50
2023-04-12T10:21:15.467Z,3.57
2023-04-12T10:23:52.545Z,3.47
2023-04-12T10:26:29.389Z,2.83
2023-04-12T10:29:32.376Z,2.80
2023-04-12T10:32:20.894Z,2.97
2023-04-12T10:34:59.406Z,3.40
2023-04-12T10:38:03.326Z,3.07
2023-04-12T10:40:39.564Z,3.00
2023-04-12T10:43:27.931Z,2.60
2023-04-12T10:46:04.497Z,2.70
2023-04-12T10:48:36.677Z,2.80
2023-04-12T10:51:29.444Z,2.97
2023-04-12T10:54:40.225Z,2.80
2023-04-12T10:57:15.423Z,3.40
2023-04-12T10:59:59.387Z,2.87
2023-04-12T11:02:34.668Z,2.77
2023-04-12T11:05:14.847Z,2.73
2023-04-12T11:07:51.442Z,2.60
2023-04-12T11:10:28.446Z,2.90
2023-04-12T11:12:57.559Z,2.37
2023-04-12T11:15:35.483Z,2.80
2023-04-12T11:18:08.720Z,2.70
2023-04-12T11:20:46.556Z,2.50
2023-04-12T11:23:15.293Z,3.03
2023-04-12T11:25:54.582Z,3.10
2023-04-12T11:28:29.008Z,2.97
2023-04-12T11:31:07.552Z,2.83
2023-04-12T11:33:37.275Z,2.93
2023-04-12T11:36:14.591Z,2.20
2023-04-12T11:38:43.234Z,2.17
2023-04-12T11:41:18.565Z,2.40
2023-04-12T11:43:47.951Z,2.03
2023-04-12T11:46:24.526Z,2.07
2023-04-12T11:48:52.989Z,2.27
2023-04-12T11:51:31.623Z,2.47
2023-04-12T11:54:07.633Z,2.30
2023-04-12T11:56:37.073Z,2.30
2023-04-12T11:59:11.468Z,2.50
2023-04-12T12:01:41.178Z,2.17
2023-04-12T12:04:16.577Z,2.87
2023-04-12T12:06:51.660Z,2.63
2023-04-12T12:09:26.456Z,2.63
2023-04-12T12:12:02.628Z,2.93
2023-04-12T12:14:34.127Z,2.77
2023-04-12T12:17:16.476Z,2.40
2023-04-12T12:19:48.502Z,2.40
2023-04-12T12:22:24.455Z,2.53
2023-04-12T12:24:54.558Z,2.70
2023-04-12T12:27:31.689Z,2.50
2023-04-12T12:30:03.776Z,2.53
2023-04-12T12:32:43.663Z,2.63
2023-04-12T12:35:13.386Z,2.50
2023-04-12T12:37:57.522Z,1.93
2023-04-12T12:40:38.670Z,1.60
2023-04-12T12:43:07.598Z,1.60
2023-04-12T12:45:43.645Z,1.63
2023-04-12T12:48:13.907Z,1.50
2023-04-12T12:50:48.682Z,0.90
2023-04-12T12:53:16.889Z,1.10
2023-04-12T12:55:51.526Z,1.30
2023-04-12T12:58:26.688Z,1.00
2023-04-12T13:00:55.999Z,1.03
2023-04-12T13:03:32.793Z,0.93
2023-04-12T13:06:21.572Z,1.00
2023-04-12T13:08:56.812Z,1.50
2023-04-12T13:11:25.197Z,1.00
2023-04-12T13:13:53.848Z,0.83
2023-04-12T13:16:28.747Z,2.07
2023-04-12T13:18:58.785Z,1.10
2023-04-12T13:21:33.731Z,1.10
2023-04-12T13:24:02.135Z,1.20
2023-04-12T13:26:31.346Z,1.20
2023-04-12T13:29:05.721Z,1.53
2023-04-12T13:31:34.001Z,1.17
2023-04-12T13:34:10.601Z,1.13
2023-04-12T13:36:38.922Z,1.10
2023-04-12T13:39:07.268Z,1.00
2023-04-12T13:41:42.719Z,0.80
2023-04-12T13:44:11.036Z,1.00
2023-04-12T13:46:45.544Z,1.00
2023-04-12T13:49:15.586Z,1.00
2023-04-12T13:51:50.599Z,1.10
2023-04-12T13:54:18.765Z,1.00
2023-04-12T13:56:47.142Z,1.00
2023-04-12T13:59:22.541Z,0.90
2023-04-12T14:01:51.154Z,1.07
2023-04-12T14:04:27.807Z,1.10
2023-04-12T14:07:02.702Z,1.23
2023-04-12T14:09:39.660Z,0.97
2023-04-12T14:12:14.618Z,0.90
2023-04-12T14:14:43.061Z,0.80
2023-04-12T14:17:17.841Z,0.70
2023-04-12T14:19:47.849Z,1.00
2023-04-12T14:22:22.760Z,1.27
2023-04-12T14:24:57.752Z,1.20
2023-04-12T14:27:26.244Z,1.23
2023-04-12T14:30:01.621Z,0.70
2023-04-12T14:32:30.074Z,0.90
2023-04-12T14:35:06.611Z,2.00
2023-04-12T14:37:34.979Z,0.90
2023-04-12T14:40:12.608Z,1.40
2023-04-12T14:42:47.755Z,2.60
2023-04-12T14:45:17.476Z,1.40
2023-04-12T14:47:52.881Z,1.20
2023-04-12T14:50:22.839Z,1.00
2023-04-12T14:52:57.624Z,0.90
2023-04-12T14:55:26.416Z,1.07
2023-04-12T14:57:54.763Z,0.80
2023-04-12T15:00:30.779Z,1.20
2023-04-12T15:03:01.049Z,1.10
2023-04-12T15:05:44.829Z,1.40
2023-04-12T15:08:19.719Z,1.10
2023-04-12T15:10:54.782Z,0.90
2023-04-12T15:13:30.267Z,0.90
2023-04-12T15:16:08.833Z,1.10
2023-04-12T15:18:44.652Z,1.07
2023-04-12T15:21:14.685Z,1.10
2023-04-12T15:23:49.871Z,1.20
2023-04-12T15:26:18.358Z,1.80
2023-04-12T15:28:53.645Z,1.20
2023-04-12T15:31:28.658Z,1.30
2023-04-12T15:33:58.060Z,1.57
2023-04-12T15:36:40.702Z,1.80
2023-04-12T15:39:08.998Z,1.20
2023-04-12T15:41:45.813Z,0.90
2023-04-12T15:44:14.551Z,1.40
2023-04-12T15:47:03.216Z,1.20
2023-04-12T15:49:44.849Z,1.30
2023-04-12T15:52:14.349Z,1.43
2023-04-12T15:54:49.859Z,1.23
2023-04-12T15:57:18.178Z,1.40
2023-04-12T15:59:52.680Z,1.70
2023-04-12T16:02:21.414Z,1.80
2023-04-12T16:05:02.821Z,1.23
2023-04-12T16:07:46.683Z,1.70
2023-04-12T16:10:14.853Z,1.53
2023-04-12T16:12:49.767Z,2.00
2023-04-12T16:15:19.404Z,8.30
2023-04-12T16:17:54.858Z,11.77
2023-04-12T16:20:30.694Z,9.20
2023-04-12T16:23:00.369Z,10.67
2023-04-12T16:25:36.133Z,8.73
2023-04-12T16:28:10.997Z,2.67
2023-04-12T16:30:45.774Z,4.40
2023-04-12T16:33:28.503Z,1.77
2023-04-12T16:36:03.718Z,3.13
2023-04-12T16:38:39.789Z,2.63
2023-04-12T16:41:08.724Z,2.60
2023-04-12T16:43:45.454Z,2.10
2023-04-12T16:46:15.190Z,1.73
2023-04-12T16:48:49.768Z,1.40
2023-04-12T16:51:18.295Z,1.30
2023-04-12T16:53:48.389Z,1.90
2023-04-12T16:56:24.975Z,1.73
2023-04-12T16:58:53.113Z,1.90
2023-04-12T17:01:28.955Z,1.50
2023-04-12T17:03:57.523Z,1.73
2023-04-12T17:06:41.579Z,1.30
2023-04-12T17:09:24.937Z,1.27
2023-04-12T17:11:53.244Z,1.30
2023-04-12T17:14:28.733Z,1.30
2023-04-12T17:16:57.337Z,2.30
2023-04-12T17:19:32.757Z,3.30
2023-04-12T17:22:07.894Z,2.37
2023-04-12T17:24:38.317Z,2.30
2023-04-12T17:27:12.737Z,1.67
2023-04-12T17:29:40.886Z,1.33
2023-04-12T17:32:15.740Z,1.30
2023-04-12T17:34:44.913Z,1.60
2023-04-12T17:37:19.784Z,1.73
2023-04-12T17:39:57.965Z,1.53
2023-04-12T17:42:27.179Z,2.00
2023-04-12T17:45:01.972Z,1.77
2023-04-12T17:47:30.823Z,1.37
2023-04-12T17:50:00.465Z,1.70
2023-04-12T17:52:35.798Z,1.30
2023-04-12T17:55:07.452Z,1.40
2023-04-12T17:57:42.764Z,1.10
2023-04-12T18:00:12.424Z,1.00
2023-04-12T18:02:48.182Z,1.03
2023-04-12T18:05:32.766Z,0.87
2023-04-12T18:08:10.008Z,0.90
2023-04-12T18:10:46.821Z,0.90
2023-04-12T18:13:14.929Z,1.10
2023-04-12T18:15:49.823Z,0.80
2023-04-12T18:18:24.955Z,0.80
2023-04-12T18:20:53.202Z,1.20
2023-04-12T18:23:27.819Z,1.07
2023-04-12T18:25:57.541Z,1.27
2023-04-12T18:28:32.799Z,1.17
2023-04-12T18:31:03.339Z,1.10
2023-04-12T18:33:37.817Z,1.60
2023-04-12T18:36:06.695Z,1.50
2023-04-12T18:38:35.776Z,1.57
2023-04-12T18:41:12.972Z,1.30
2023-04-12T18:43:41.364Z,1.47
2023-04-12T18:46:16.823Z,1.43
2023-04-12T18:48:46.023Z,1.07
2023-04-12T18:51:14.834Z,1.10
2023-04-12T18:53:49.876Z,1.00
2023-04-12T18:56:23.839Z,1.30
2023-04-12T18:58:59.021Z,1.50
2023-04-12T19:01:27.243Z,1.03
2023-04-12T19:03:55.506Z,1.07
2023-04-12T19:06:30.853Z,1.13
2023-04-12T19:09:05.252Z,0.70
2023-04-12T19:11:41.825Z,1.10
2023-04-12T19:14:09.877Z,1.00
2023-04-12T19:16:44.866Z,1.00
2023-04-12T19:19:13.018Z,0.97
2023-04-12T19:21:47.856Z,1.20
2023-04-12T19:24:22.838Z,1.00
2023-04-12T19:26:53.011Z,1.13
2023-04-12T19:29:28.053Z,1.50
2023-04-12T19:32:02.905Z,1.30
2023-04-12T19:34:31.377Z,1.30
2023-04-12T19:37:06.881Z,1.30
2023-04-12T19:39:41.868Z,1.30
2023-04-12T19:42:11.763Z,1.20
2023-04-12T19:44:46.859Z,1.60
2023-04-12T19:47:21.938Z,1.57
2023-04-12T19:49:50.238Z,1.80
2023-04-12T19:52:27.045Z,1.43
2023-04-12T19:55:03.895Z,1.40
2023-04-12T19:57:33.468Z,1.50
2023-04-12T20:00:09.939Z,1.37
2023-04-12T20:02:44.896Z,1.60
2023-04-12T20:05:34.890Z,1.40
2023-04-12T20:08:09.929Z,1.40
2023-04-12T20:10:38.889Z,1.30
2023-04-12T20:13:16.968Z,1.23
2023-04-12T20:15:51.955Z,1.30
2023-04-12T20:18:20.630Z,1.43
2023-04-12T20:20:49.994Z,1.30
2023-04-12T20:23:24.880Z,1.10
2023-04-12T20:25:53.099Z,1.27
2023-04-12T20:28:29.896Z,1.07
2023-04-12T20:30:58.019Z,1.13
2023-04-12T20:33:32.931Z,1.23
2023-04-12T20:36:07.957Z,1.00
2023-04-12T20:38:36.081Z,1.13
2023-04-12T20:41:10.923Z,1.70
2023-04-12T20:43:52.909Z,1.20
2023-04-12T20:46:25.685Z,1.00
2023-04-12T20:49:03.062Z,1.10
2023-04-12T20:51:37.932Z,0.90
2023-04-12T20:54:06.725Z,0.90
2023-04-12T20:56:41.926Z,1.27
2023-04-12T20:59:19.078Z,1.00
2023-04-12T21:01:47.754Z,0.80
2023-04-12T21:04:24.055Z,0.73
2023-04-12T21:07:01.945Z,0.90
2023-04-12T21:09:31.198Z,1.00
2023-04-12T21:12:08.942Z,0.80
2023-04-12T21:14:39.242Z,0.97
2023-04-12T21:17:13.952Z,0.97
2023-04-12T21:19:48.989Z,0.80
2023-04-12T21:22:17.302Z,1.00
2023-04-12T21:24:52.116Z,0.90
2023-04-12T21:27:26.966Z,0.87
2023-04-12T21:29:56.423Z,1.10
2023-04-12T21:32:31.034Z,1.10
2023-04-12T21:35:07.164Z,1.00
2023-04-12T21:37:37.031Z,1.10
2023-04-12T21:40:15.966Z,0.93
2023-04-12T21:42:52.071Z,1.00
2023-04-12T21:45:21.651Z,1.20
2023-04-12T21:47:56.057Z,1.10
2023-04-12T21:50:31.039Z,1.03
2023-04-12T21:52:59.322Z,1.00
2023-04-12T21:55:34.963Z,1.00
2023-04-12T21:58:10.014Z,1.00
2023-04-12T22:00:39.620Z,1.10
2023-04-12T22:03:14.222Z,1.07
2023-04-12T22:06:02.978Z,1.20
2023-04-12T22:08:43.895Z,1.00
2023-04-12T22:11:19.148Z,1.00
2023-04-12T22:13:47.352Z,1.17
2023-04-12T22:16:23.047Z,1.20
2023-04-12T22:18:51.136Z,1.20
2023-04-12T22:21:25.988Z,1.10
2023-04-12T22:24:02.344Z,1.60
2023-04-12T22:26:31.648Z,1.00
2023-04-12T22:28:59.992Z,1.30
2023-04-12T22:31:36.102Z,1.50
2023-04-12T22:34:04.636Z,1.70
2023-04-12T22:36:44.193Z,1.33
2023-04-12T22:39:22.047Z,1.30
2023-04-12T22:41:50.273Z,1.27
2023-04-12T22:44:25.065Z,1.20
2023-04-12T22:47:03.066Z,0.97
2023-04-12T22:49:31.545Z,1.23
2023-04-12T22:52:13.336Z,1.10
2023-04-12T22:54:55.158Z,1.00
2023-04-12T22:57:24.043Z,1.20
2023-04-12T23:00:00.135Z,1.20
2023-04-12T23:02:37.265Z,1.27
2023-04-12T23:05:06.731Z,1.20
2023-04-12T23:07:42.176Z,1.30
2023-04-12T23:10:12.232Z,1.23
2023-04-12T23:12:40.736Z,1.50
2023-04-12T23:15:17.395Z,1.37
2023-04-12T23:17:50.051Z,1.30
2023-04-12T23:20:25.128Z,1.20
2023-04-12T23:23:04.387Z,1.20
2023-04-12T23:25:39.659Z,1.23
2023-04-12T23:28:19.629Z,1.20
2023-04-12T23:30:56.389Z,1.40
2023-04-12T23:33:26.920Z,1.27
2023-04-12T23:36:03.468Z,1.70
2023-04-12T23:38:40.140Z,1.40
2023-04-12T23:41:11.973Z,1.20
2023-04-12T23:43:47.800Z,1.53
2023-04-12T23:46:23.405Z,1.37
2023-04-12T23:48:53.905Z,1.33
2023-04-12T23:51:29.139Z,1.30
2023-04-12T23:54:11.199Z,1.67
2023-04-12T23:56:39.547Z,1.20
2023-04-12T23:59:08.088Z,1.37
